Time;durP1;ratioP1;P1;durP2;ratioP2;P2;SDS_P1;SDS_P2;PMS_P1;PMS_P2;Temp;Humidity;BMP_temperature;BMP_pressure;BME280_temperature;BME280_humidity;BME280_pressure;Samples;Min_cycle;Max_cycle;Signal;HPM_P1;HPM_P2
2023/10/28 00:14:25;;;;;;;1.42;1.05;;;;;;;21.69;61.55;98960.22;40241959;29;20506;-70
2023/10/28 00:34:25;;;;;;;1.17;1.08;;;;;;;21.67;61.67;98965.66;40275134;29;20114;-70
2023/10/28 00:54:26;;;;;;;2.67;1.20;;;;;;;21.67;61.35;98978.84;40262815;29;20372;-70
2023/10/28 01:14:32;;;;;;;1.08;0.98;;;;;;;21.66;61.41;99005.34;40266857;29;20399;-68
2023/10/28 01:34:32;;;;;;;4.95;1.10;;;;;;;21.85;62.38;99028.84;40226574;29;20048;-73
2023/10/28 01:54:33;;;;;;;4.07;1.35;;;;;;;21.87;62.56;99052.38;40219692;29;20451;-69
2023/10/28 02:14:35;;;;;;;4.90;1.60;;;;;;;21.39;53.32;99047.41;40226845;29;20120;-75
2023/10/28 02:34:36;;;;;;;4.72;1.73;;;;;;;21.61;59.07;99063.75;40277505;29;20049;-70
2023/10/28 02:54:37;;;;;;;1.90;1.50;;;;;;;21.89;60.90;99058.34;40266034;29;20541;-70
2023/10/28 03:14:38;;;;;;;3.80;1.58;;;;;;;22.00;60.83;99042.25;40264916;29;20049;-74
2023/10/28 03:34:39;;;;;;;5.80;1.70;;;;;;;22.02;60.73;99050.00;40272008;29;20038;-79
2023/10/28 03:54:39;;;;;;;2.90;1.50;;;;;;;21.89;60.67;99042.53;40267900;29;20084;-78
2023/10/28 04:14:40;;;;;;;4.35;1.60;;;;;;;22.05;60.22;99083.94;40291163;29;20049;-79
2023/10/28 04:34:40;;;;;;;1.77;1.50;;;;;;;22.08;60.11;99104.72;40304685;29;20065;-79
2023/10/28 04:54:41;;;;;;;1.90;1.50;;;;;;;22.01;60.05;99115.06;40307328;29;20046;-80
2023/10/28 05:14:42;;;;;;;1.75;1.50;;;;;;;21.89;59.99;99090.78;40306568;29;20045;-80
2023/10/28 05:34:43;;;;;;;2.33;1.55;;;;;;;21.88;59.52;99131.28;40276063;29;20046;-80
2023/10/28 05:54:44;;;;;;;2.55;1.80;;;;;;;22.05;59.12;99190.22;40291378;29;20052;-71
2023/10/28 06:14:45;;;;;;;95.22;9.20;;;;;;;21.68;57.93;99238.66;40264996;29;20045;-71
2023/10/28 06:34:45;;;;;;;18.10;4.05;;;;;;;21.75;56.75;99255.53;40264146;29;20067;-71
2023/10/28 06:54:45;;;;;;;8.35;3.55;;;;;;;21.19;51.73;99277.59;40253293;29;20057;-71
2023/10/28 07:14:47;;;;;;;11.35;4.05;;;;;;;21.55;55.03;99290.84;40246693;29;20460;-71
2023/10/28 07:34:47;;;;;;;7.00;3.22;;;;;;;21.66;56.02;99343.34;40258367;29;20053;-71
2023/10/28 07:54:48;;;;;;;9.93;4.90;;;;;;;21.49;54.73;99362.56;40254286;29;20388;-71
2023/10/28 08:14:49;;;;;;;33.00;7.22;;;;;;;21.78;55.57;99385.34;40255780;29;20045;-71
2023/10/28 08:34:51;;;;;;;17.98;5.30;;;;;;;21.58;53.91;99394.16;40256204;29;20048;-72
2023/10/28 08:54:54;;;;;;;21.17;8.35;;;;;;;21.33;52.04;99397.41;40271090;29;20159;-79
2023/10/28 09:14:54;;;;;;;14.73;7.35;;;;;;;21.50;53.71;99440.59;40280042;29;20042;-71
2023/10/28 09:34:55;;;;;;;21.80;7.55;;;;;;;21.89;54.51;99453.66;40293812;29;20076;-68
2023/10/28 09:55:02;;;;;;;22.33;7.03;;;;;;;21.98;55.37;99444.84;40277968;29;20050;-68
2023/10/28 10:15:03;;;;;;;24.05;6.55;;;;;;;22.07;55.64;99433.44;40267889;29;20563;-71
2023/10/28 10:35:30;;;;;;;15.30;6.32;;;;;;;22.13;55.81;99418.81;40258179;29;20106;-71
2023/10/28 10:55:30;;;;;;;16.88;6.07;;;;;;;22.25;55.46;99435.25;40256672;29;20498;-70
2023/10/28 11:15:32;;;;;;;30.02;6.90;;;;;;;22.26;55.33;99429.00;40241912;29;20045;-70
2023/10/28 11:35:33;;;;;;;19.17;5.60;;;;;;;22.56;55.84;99419.09;40236975;29;20087;-71
2023/10/28 11:55:35;;;;;;;13.27;5.10;;;;;;;22.86;55.67;99412.59;40259803;29;20053;-71
2023/10/28 12:15:36;;;;;;;9.82;4.40;;;;;;;22.45;54.96;99414.03;40283196;29;20045;-74
2023/10/28 12:35:36;;;;;;;4.35;2.00;;;;;;;21.61;48.78;99447.53;40286807;29;20061;-72
2023/10/28 12:55:36;;;;;;;5.22;1.50;;;;;;;;;;40273174;29;20045;-72
2023/10/28 13:15:39;;;;;;;3.13;1.50;;;;;;;21.32;47.17;99453.69;40275405;29;20061;-72
2023/10/28 13:35:40;;;;;;;2.78;1.65;;;;;;;21.87;48.29;99456.44;40262602;29;20291;-72
2023/10/28 13:55:40;;;;;;;2.63;1.35;;;;;;;21.57;46.98;99468.88;40295379;29;20525;-73
2023/10/28 14:15:42;;;;;;;4.80;1.30;;;;;;;21.62;45.73;99486.03;40291610;29;20415;-73
2023/10/28 14:35:43;;;;;;;2.38;1.17;;;;;;;21.18;45.87;99411.03;40276521;29;20525;-76
2023/10/28 14:55:44;;;;;;;4.63;1.00;;;;;;;21.48;45.25;99498.66;40274058;29;20113;-72
2023/10/28 15:15:45;;;;;;;3.42;1.02;;;;;;;21.47;44.59;99519.91;40262122;29;20050;-74
2023/10/28 15:35:46;;;;;;;5.78;2.10;;;;;;;21.51;45.34;99516.03;40269449;29;20060;-74
2023/10/28 15:55:46;;;;;;;11.52;1.80;;;;;;;21.38;46.23;99495.25;40323937;29;20511;-82
2023/10/28 16:15:48;;;;;;;5.75;1.77;;;;;;;21.56;46.17;99521.69;40340995;29;20077;-83
2023/10/28 16:35:48;;;;;;;7.07;1.70;;;;;;;21.67;47.03;99562.88;40337008;29;20052;-82
2023/10/28 16:55:58;;;;;;;11.63;2.50;;;;;;;21.80;48.93;99596.81;40351308;29;20435;-82
2023/10/28 17:16:03;;;;;;;16.15;3.25;;;;;;;21.52;50.02;99544.00;40347475;29;20145;-81
2023/10/28 17:36:10;;;;;;;18.75;3.70;;;;;;;21.67;51.37;99583.94;40331259;29;21071;-82
2023/10/28 17:56:10;;;;;;;15.52;4.80;;;;;;;21.60;51.38;99604.75;40328139;29;20053;-82
2023/10/28 18:16:13;;;;;;;11.18;4.57;;;;;;;21.43;51.26;99633.44;40320637;29;20061;-83
2023/10/28 18:36:14;;;;;;;13.05;5.20;;;;;;;21.56;52.27;99679.75;40288483;29;20054;-83
2023/10/28 18:56:16;;;;;;;15.43;5.47;;;;;;;21.59;52.18;99703.19;40274889;29;20142;-81
2023/10/28 19:16:18;;;;;;;10.32;5.00;;;;;;;21.48;51.71;99711.19;40300784;29;20049;-82
2023/10/28 19:36:22;;;;;;;12.70;5.75;;;;;;;21.47;51.48;99765.69;40295160;29;20041;-83
2023/10/28 19:56:22;;;;;;;9.27;5.57;;;;;;;21.48;51.42;99759.44;40288442;29;20098;-82
2023/10/28 20:16:23;;;;;;;7.93;5.93;;;;;;;21.41;50.86;99726.69;40297135;29;20049;-86
2023/10/28 20:36:24;;;;;;;9.25;6.38;;;;;;;21.37;50.45;99755.16;40330725;29;20050;-82
2023/10/28 20:56:25;;;;;;;8.27;6.20;;;;;;;21.51;50.94;99758.34;40301970;29;20041;-71
2023/10/28 21:16:26;;;;;;;6.75;5.70;;;;;;;21.46;51.55;99748.22;40303459;29;20049;-70
2023/10/28 21:36:27;;;;;;;10.05;5.90;;;;;;;21.53;52.18;99746.72;40289461;29;20068;-71
2023/10/28 21:56:28;;;;;;;11.52;5.60;;;;;;;21.32;53.17;99717.00;40295507;29;20060;-70
2023/10/28 22:16:28;;;;;;;8.27;5.93;;;;;;;21.51;52.85;99774.16;40295163;29;20068;-71
2023/10/28 22:36:29;;;;;;;7.50;5.38;;;;;;;21.45;53.63;99791.31;40300723;29;20069;-70
2023/10/28 22:56:29;;;;;;;8.30;5.28;;;;;;;21.44;53.41;99816.00;40290818;29;20046;-69
2023/10/28 23:16:30;;;;;;;6.85;5.35;;;;;;;21.39;53.77;99808.50;40284476;29;20101;-70
2023/10/28 23:36:30;;;;;;;6.50;5.10;;;;;;;21.40;54.10;99791.72;40279189;29;20052;-71
2023/10/28 23:56:32;;;;;;;6.25;4.82;;;;;;;21.34;54.01;99805.44;40270627;29;20575;-71
